createdAt,value
2022-11-03T00:02:17.422Z,101393.19
2022-11-03T00:04:49.127Z,101395.88
2022-11-03T00:07:21.944Z,101396.13
2022-11-03T00:09:51.520Z,101389.28
2022-11-03T00:12:18.407Z,101381.63
2022-11-03T00:14:45.334Z,101389.91
2022-11-03T00:17:12.309Z,101382.50
2022-11-03T00:19:39.134Z,101372.56
2022-11-03T00:22:05.979Z,101368.88
2022-11-03T00:24:35.412Z,101359.91
2022-11-03T00:27:02.268Z,101363.56
2022-11-03T00:29:33.969Z,101355.47
2022-11-03T00:32:00.814Z,101355.63
2022-11-03T00:34:27.690Z,101344.38
2022-11-03T00:36:57.584Z,101350.66
2022-11-03T00:39:24.412Z,101349.50
2022-11-03T00:41:51.277Z,101349.78
2022-11-03T00:44:18.151Z,101348.66
2022-11-03T00:46:45.030Z,101348.66
2022-11-03T00:49:13.969Z,101344.09
2022-11-03T00:51:48.039Z,101344.25
2022-11-03T00:54:14.895Z,101348.50
2022-11-03T00:56:46.833Z,101348.06
2022-11-03T00:59:13.636Z,101343.66
2022-11-03T01:01:47.779Z,101339.81
2022-11-03T01:04:37.298Z,101343.22
2022-11-03T01:07:09.402Z,101329.66
2022-11-03T01:09:41.296Z,101332.91
2022-11-03T01:12:17.951Z,101326.53
2022-11-03T01:14:49.300Z,101320.88
2022-11-03T01:17:25.113Z,101322.75
2022-11-03T01:19:53.067Z,101325.03
2022-11-03T01:22:21.542Z,101322.06
2022-11-03T01:24:56.572Z,101316.50
2022-11-03T01:27:23.488Z,101311.22
2022-11-03T01:29:55.335Z,101318.19
2022-11-03T01:32:24.716Z,101312.09
2022-11-03T01:34:51.700Z,101310.81
2022-11-03T01:37:18.524Z,101310.25
2022-11-03T01:39:45.345Z,101302.69
2022-11-03T01:42:15.733Z,101309.97
2022-11-03T01:44:47.650Z,101300.28
2022-11-03T01:47:29.518Z,101299.44
2022-11-03T01:50:06.278Z,101296.31
2022-11-03T01:52:54.780Z,101288.34
2022-11-03T01:55:29.726Z,101289.31
2022-11-03T01:58:04.246Z,101284.75
2022-11-03T02:00:34.081Z,101273.50
2022-11-03T02:03:04.542Z,101273.38
2022-11-03T02:05:31.699Z,101272.53
2022-11-03T02:08:15.536Z,101268.84
2022-11-03T02:10:48.484Z,101263.28
2022-11-03T02:13:25.766Z,101258.47
2022-11-03T02:16:02.830Z,101255.13
2022-11-03T02:18:33.613Z,101254.44
2022-11-03T02:21:35.715Z,101252.16
2022-11-03T02:24:31.373Z,101250.72
2022-11-03T02:26:58.305Z,101237.06
2022-11-03T02:29:25.237Z,101237.91
2022-11-03T02:32:07.455Z,101232.72
2022-11-03T02:34:48.990Z,101237.63
2022-11-03T02:37:25.256Z,101235.22
2022-11-03T02:40:19.104Z,101234.09
2022-11-03T02:42:51.259Z,101233.91
2022-11-03T02:45:21.661Z,101237.06
2022-11-03T02:47:56.091Z,101229.22
2022-11-03T02:50:28.701Z,101242.25
2022-11-03T02:52:56.160Z,101235.53
2022-11-03T02:56:00.839Z,101235.06
2022-11-03T02:58:52.822Z,101231.09
2022-11-03T03:01:34.937Z,101220.56
2022-11-03T03:04:07.549Z,101214.88
2022-11-03T03:06:46.020Z,101208.00
2022-11-03T03:09:29.868Z,101202.59
2022-11-03T03:12:00.589Z,101206.47
2022-11-03T03:14:36.575Z,101192.66
2022-11-03T03:17:19.375Z,101182.41
2022-11-03T03:20:08.540Z,101172.00
2022-11-03T03:22:58.935Z,101182.84
2022-11-03T03:25:29.825Z,101174.44
2022-11-03T03:28:16.072Z,101173.56
2022-11-03T03:30:45.272Z,101186.03
2022-11-03T03:33:17.733Z,101193.25
2022-11-03T03:35:48.687Z,101174.44
2022-11-03T03:38:27.292Z,101166.19
2022-11-03T03:40:57.657Z,101162.91
2022-11-03T03:43:31.733Z,101161.66
2022-11-03T03:46:06.680Z,101170.75
2022-11-03T03:48:37.014Z,101163.91
2022-11-03T03:51:07.416Z,101156.81
2022-11-03T03:53:34.322Z,101151.28
2022-11-03T03:56:01.315Z,101162.28
2022-11-03T03:58:28.207Z,101162.81
2022-11-03T04:00:55.215Z,101159.09
2022-11-03T04:03:25.445Z,101154.13
2022-11-03T04:05:57.208Z,101156.38
2022-11-03T04:08:24.153Z,101159.06
2022-11-03T04:11:09.625Z,101160.78
2022-11-03T04:13:55.076Z,101160.78
2022-11-03T04:16:40.367Z,101148.06
2022-11-03T04:19:30.353Z,101138.22
2022-11-03T04:22:18.048Z,101138.69
2022-11-03T04:24:52.401Z,101141.19
2022-11-03T04:27:34.223Z,101130.03
2022-11-03T04:30:16.844Z,101132.47
2022-11-03T04:32:46.358Z,101121.25
2022-11-03T04:35:30.024Z,101132.38
2022-11-03T04:38:02.553Z,101135.94
2022-11-03T04:40:32.354Z,101120.53
2022-11-03T04:43:05.527Z,101114.63
2022-11-03T04:45:34.416Z,101114.13
2022-11-03T04:48:10.614Z,101110.06
2022-11-03T04:50:37.575Z,101113.50
2022-11-03T04:53:13.391Z,101117.63
2022-11-03T04:55:42.021Z,101117.28
2022-11-03T04:58:36.841Z,101106.53
2022-11-03T05:01:04.888Z,101100.59
2022-11-03T05:03:39.806Z,101117.81
2022-11-03T05:06:28.852Z,101102.28
2022-11-03T05:09:02.977Z,101101.69
2022-11-03T05:11:40.593Z,101108.44
2022-11-03T05:14:17.638Z,101105.63
2022-11-03T05:16:48.087Z,101111.19
2022-11-03T05:19:43.107Z,101104.00
2022-11-03T05:22:22.425Z,101102.28
2022-11-03T05:24:56.829Z,101098.31
2022-11-03T05:27:24.707Z,101097.72
2022-11-03T05:30:00.591Z,101098.25
2022-11-03T05:32:33.608Z,101097.50
2022-11-03T05:35:01.326Z,101093.91
2022-11-03T05:37:31.660Z,101087.66
2022-11-03T05:40:25.732Z,101081.59
2022-11-03T05:43:00.609Z,101088.22
2022-11-03T05:45:34.778Z,101085.19
2022-11-03T05:48:23.368Z,101090.88
2022-11-03T05:50:52.732Z,101086.88
2022-11-03T05:53:38.524Z,101086.31
2022-11-03T05:56:07.256Z,101077.63
2022-11-03T05:58:42.961Z,101083.84
2022-11-03T06:01:16.616Z,101076.16
2022-11-03T06:03:43.590Z,101070.00
2022-11-03T06:06:31.779Z,101071.66
2022-11-03T06:09:13.040Z,101079.38
2022-11-03T06:11:43.445Z,101069.84
2022-11-03T06:14:26.019Z,101073.47
2022-11-03T06:17:09.883Z,101070.72
2022-11-03T06:19:44.476Z,101071.31
2022-11-03T06:22:29.368Z,101060.81
2022-11-03T06:25:11.289Z,101062.63
2022-11-03T06:27:40.611Z,101064.41
2022-11-03T06:30:34.772Z,101059.16
2022-11-03T06:33:34.713Z,101055.16
2022-11-03T06:36:23.266Z,101048.06
2022-11-03T06:39:04.448Z,101048.16
2022-11-03T06:41:36.466Z,101045.56
2022-11-03T06:44:23.454Z,101040.63
2022-11-03T06:46:56.599Z,101043.19
2022-11-03T06:49:35.852Z,101044.09
2022-11-03T06:52:17.984Z,101041.47
2022-11-03T06:54:49.814Z,101035.69
2022-11-03T06:57:22.188Z,101031.13
2022-11-03T07:00:06.636Z,101018.13
2022-11-03T07:02:53.328Z,101029.28
2022-11-03T07:05:29.462Z,101021.84
2022-11-03T07:08:10.957Z,101021.00
2022-11-03T07:10:37.938Z,101029.50
2022-11-03T07:13:16.511Z,101019.41
2022-11-03T07:15:46.945Z,101018.81
2022-11-03T07:18:25.820Z,101020.94
2022-11-03T07:20:54.970Z,101025.69
2022-11-03T07:23:27.120Z,101019.38
2022-11-03T07:26:05.841Z,101026.19
2022-11-03T07:28:39.137Z,101020.94
2022-11-03T07:31:28.418Z,101019.22
2022-11-03T07:33:59.153Z,101014.78
2022-11-03T07:36:31.023Z,101014.56
2022-11-03T07:39:01.454Z,101008.41
2022-11-03T07:41:34.754Z,101013.03
2022-11-03T07:44:02.333Z,101011.31
2022-11-03T07:46:29.370Z,101002.34
2022-11-03T07:48:58.849Z,100999.41
2022-11-03T07:51:28.534Z,101001.50
2022-11-03T07:54:01.900Z,100998.91
2022-11-03T07:56:42.627Z,100998.19
2022-11-03T07:59:09.717Z,101001.91
2022-11-03T08:01:42.350Z,100985.91
2022-11-03T08:04:31.994Z,100985.88
2022-11-03T08:07:01.435Z,100980.47
2022-11-03T08:09:30.412Z,100978.13
2022-11-03T08:11:57.285Z,100976.34
2022-11-03T08:14:24.098Z,100973.97
2022-11-03T08:16:54.156Z,100971.25
2022-11-03T08:19:20.968Z,100958.38
2022-11-03T08:21:47.779Z,100963.66
2022-11-03T08:24:14.659Z,100954.81
2022-11-03T08:26:41.509Z,100959.56
2022-11-03T08:29:08.317Z,100949.44
2022-11-03T08:31:37.342Z,100943.13
2022-11-03T08:34:04.629Z,100946.22
2022-11-03T08:36:32.437Z,100936.91
2022-11-03T08:39:01.872Z,100942.56
2022-11-03T08:41:28.665Z,100938.13
2022-11-03T08:43:55.872Z,100936.78
2022-11-03T08:46:22.871Z,100937.47
2022-11-03T08:48:49.961Z,100929.34
2022-11-03T08:51:17.016Z,100927.28
2022-11-03T08:53:44.199Z,100925.94
2022-11-03T08:56:13.804Z,100927.28
2022-11-03T08:58:44.124Z,100923.72
2022-11-03T09:01:11.165Z,100921.88
2022-11-03T09:03:38.352Z,100916.22
2022-11-03T09:06:05.792Z,100901.25
2022-11-03T09:11:19.436Z,100899.81
2022-11-03T09:13:49.284Z,100897.69
2022-11-03T09:16:17.049Z,100891.28
2022-11-03T09:18:45.389Z,100891.00
2022-11-03T09:21:14.899Z,100895.03
2022-11-03T09:23:42.005Z,100876.84
2022-11-03T09:26:11.310Z,100881.81
2022-11-03T09:28:45.201Z,100884.47
2022-11-03T09:31:12.122Z,100886.84
2022-11-03T09:33:41.970Z,100886.28
2022-11-03T09:36:13.579Z,100871.56
2022-11-03T09:38:45.185Z,100872.81
2022-11-03T09:41:26.266Z,100870.09
2022-11-03T09:44:02.787Z,100864.59
2022-11-03T09:46:30.620Z,100857.38
2022-11-03T09:48:58.869Z,100848.41
2022-11-03T09:51:27.523Z,100865.63
2022-11-03T09:54:02.059Z,100852.06
2022-11-03T09:56:38.456Z,100856.16
2022-11-03T09:59:21.736Z,100850.34
2022-11-03T10:01:53.542Z,100844.81
2022-11-03T10:04:31.181Z,100837.34
2022-11-03T10:07:03.497Z,100830.53
2022-11-03T10:09:30.436Z,100835.69
2022-11-03T10:11:57.314Z,100826.38
2022-11-03T10:14:24.580Z,100828.06
2022-11-03T10:17:02.524Z,100822.34
2022-11-03T10:19:30.079Z,100817.72
2022-11-03T10:21:56.905Z,100819.34
2022-11-03T10:24:24.905Z,100815.78
2022-11-03T10:26:57.424Z,100823.69
2022-11-03T10:29:28.704Z,100814.84
2022-11-03T10:31:58.823Z,100801.75
2022-11-03T10:34:37.813Z,100806.44
2022-11-03T10:37:17.231Z,100807.03
2022-11-03T10:39:47.878Z,100797.94
2022-11-03T10:42:30.670Z,100793.22
2022-11-03T10:45:20.452Z,100796.19
2022-11-03T10:48:08.138Z,100781.16
2022-11-03T10:50:43.219Z,100781.44
2022-11-03T10:53:18.215Z,100759.81
2022-11-03T10:55:45.504Z,100779.28
2022-11-03T10:58:14.664Z,100759.34
2022-11-03T11:00:45.406Z,100763.31
2022-11-03T11:03:19.643Z,100754.22
2022-11-03T11:05:49.261Z,100767.88
2022-11-03T11:08:23.132Z,100757.13
2022-11-03T11:10:54.081Z,100753.28
2022-11-03T11:13:26.162Z,100749.94
2022-11-03T11:16:02.020Z,100745.03
2022-11-03T11:18:31.172Z,100744.25
2022-11-03T11:21:24.177Z,100752.00
2022-11-03T11:23:53.686Z,100743.88
2022-11-03T11:26:26.300Z,100732.88
2022-11-03T11:29:11.237Z,100729.88
2022-11-03T11:32:51.027Z,100728.78
2022-11-03T11:35:23.791Z,100715.00
2022-11-03T11:37:50.849Z,100698.91
2022-11-03T11:40:26.458Z,100693.13
2022-11-03T11:43:13.566Z,100696.91
2022-11-03T11:46:22.423Z,100692.84
2022-11-03T11:49:04.656Z,100687.09
2022-11-03T11:51:36.625Z,100700.66
2022-11-03T11:54:18.685Z,100683.53
2022-11-03T11:56:48.489Z,100683.81
2022-11-03T11:59:25.809Z,100671.28
2022-11-03T12:01:57.200Z,100673.81
2022-11-03T12:04:31.025Z,100671.56
2022-11-03T12:06:58.374Z,100656.44
2022-11-03T12:09:27.995Z,100646.25
2022-11-03T12:12:03.536Z,100642.72
2022-11-03T12:14:37.023Z,100647.19
2022-11-03T12:17:19.190Z,100636.81
2022-11-03T12:19:46.822Z,100633.00
2022-11-03T12:22:41.090Z,100627.13
2022-11-03T12:25:37.240Z,100617.03
2022-11-03T12:28:04.494Z,100604.34
2022-11-03T12:30:35.514Z,100612.09
2022-11-03T12:33:05.742Z,100597.38
2022-11-03T12:35:32.821Z,100600.63
2022-11-03T12:37:59.635Z,100597.19
2022-11-03T12:40:27.200Z,100589.41
2022-11-03T12:42:56.518Z,100584.19
2022-11-03T12:45:23.427Z,100583.47
2022-11-03T12:47:50.290Z,100573.97
2022-11-03T12:50:17.277Z,100566.41
2022-11-03T12:52:45.647Z,100574.25
2022-11-03T12:55:12.561Z,100573.19
2022-11-03T12:57:41.652Z,100559.78
2022-11-03T13:00:09.204Z,100556.19
2022-11-03T13:02:36.287Z,100551.16
2022-11-03T13:05:03.984Z,100546.63
2022-11-03T13:07:34.804Z,100553.28
2022-11-03T13:10:07.057Z,100552.53
2022-11-03T13:12:38.938Z,100546.38
2022-11-03T13:15:10.094Z,100540.72
2022-11-03T13:17:59.133Z,100538.19
2022-11-03T13:20:26.136Z,100528.34
2022-11-03T13:22:55.486Z,100515.13
2022-11-03T13:25:24.753Z,100521.66
2022-11-03T13:27:54.452Z,100513.31
2022-11-03T13:30:25.475Z,100498.38
2022-11-03T13:32:52.638Z,100507.94
2022-11-03T13:35:20.002Z,100503.34
2022-11-03T13:37:47.155Z,100488.63
2022-11-03T13:40:35.849Z,100491.38
2022-11-03T13:43:02.294Z,100488.66
2022-11-03T13:45:29.420Z,100472.66
2022-11-03T13:48:47.446Z,100483.41
2022-11-03T13:50:45.249Z,100480.66
2022-11-03T13:56:05.234Z,100465.25
2022-11-03T14:01:22.752Z,100460.81
2022-11-03T14:06:44.732Z,100455.34
2022-11-03T14:09:14.052Z,100454.72
2022-11-03T14:11:59.236Z,100456.41
2022-11-03T14:14:26.073Z,100455.34
2022-11-03T14:16:52.991Z,100450.72
2022-11-03T14:19:19.996Z,100457.03
2022-11-03T14:21:46.878Z,100441.91
2022-11-03T14:24:16.531Z,100438.53
2022-11-03T14:26:43.671Z,100434.34
2022-11-03T14:29:10.725Z,100434.31
2022-11-03T14:31:37.588Z,100436.22
2022-11-03T14:34:09.837Z,100423.41
2022-11-03T14:36:36.775Z,100423.81
2022-11-03T14:39:07.061Z,100411.84
2022-11-03T14:41:52.234Z,100411.63
2022-11-03T14:44:19.091Z,100413.28
2022-11-03T14:46:46.019Z,100409.53
2022-11-03T14:49:12.931Z,100411.84
2022-11-03T14:51:42.992Z,100406.97
2022-11-03T14:54:09.812Z,100399.41
2022-11-03T14:56:36.636Z,100391.03
2022-11-03T14:59:08.934Z,100388.47
2022-11-03T15:01:37.359Z,100378.81
2022-11-03T15:04:05.078Z,100381.06
2022-11-03T15:06:34.073Z,100371.13
2022-11-03T15:09:04.011Z,100368.38
2022-11-03T15:11:31.376Z,100364.28
2022-11-03T15:13:58.239Z,100352.34
2022-11-03T15:16:25.227Z,100346.09
2022-11-03T15:18:54.701Z,100335.53
2022-11-03T15:21:21.572Z,100338.78
2022-11-03T15:26:41.437Z,100324.81
2022-11-03T15:29:10.747Z,100318.13
2022-11-03T15:31:38.360Z,100304.34
2022-11-03T15:34:08.756Z,100313.06
2022-11-03T15:36:35.986Z,100303.78
2022-11-03T15:39:03.400Z,100299.78
2022-11-03T15:41:30.899Z,100289.13
2022-11-03T15:44:00.414Z,100298.88
2022-11-03T15:46:30.037Z,100281.88
2022-11-03T15:48:57.806Z,100279.28
2022-11-03T15:51:25.274Z,100275.34
2022-11-03T15:53:58.775Z,100272.47
2022-11-03T15:56:31.930Z,100270.88
2022-11-03T15:58:58.823Z,100259.22
2022-11-03T16:01:28.009Z,100261.72
2022-11-03T16:03:55.053Z,100250.78
2022-11-03T16:06:46.632Z,100254.66
2022-11-03T16:09:13.496Z,100248.34
2022-11-03T16:11:43.347Z,100243.56
2022-11-03T16:14:15.174Z,100243.94
2022-11-03T16:16:42.018Z,100229.69
2022-11-03T16:19:11.471Z,100220.41
2022-11-03T16:21:38.348Z,100240.88
2022-11-03T16:24:05.520Z,100238.03
2022-11-03T16:26:32.446Z,100227.13
2022-11-03T16:28:59.334Z,100219.84
2022-11-03T16:31:29.016Z,100216.34
2022-11-03T16:33:55.849Z,100208.19
2022-11-03T16:36:25.125Z,100190.06
2022-11-03T16:38:51.996Z,100188.13
2022-11-03T16:41:18.935Z,100190.91
2022-11-03T16:43:49.771Z,100174.13
2022-11-03T16:46:16.799Z,100174.88
2022-11-03T16:48:43.701Z,100173.34
2022-11-03T16:51:10.557Z,100173.28
2022-11-03T16:53:37.365Z,100174.22
2022-11-03T16:56:04.597Z,100166.28
2022-11-03T16:58:31.435Z,100174.63
2022-11-03T17:01:00.893Z,100170.28
2022-11-03T17:03:27.817Z,100159.66
2022-11-03T17:06:00.129Z,100161.31
2022-11-03T17:08:51.691Z,100160.94
2022-11-03T17:11:16.028Z,100158.59
2022-11-03T17:13:42.908Z,100160.75
2022-11-03T17:16:09.784Z,100151.53
2022-11-03T17:18:39.164Z,100155.03
2022-11-03T17:21:08.623Z,100153.84
2022-11-03T17:23:35.561Z,100152.97
2022-11-03T17:26:03.241Z,100147.78
2022-11-03T17:28:30.235Z,100144.94
2022-11-03T17:30:59.330Z,100137.53
2022-11-03T17:33:28.718Z,100138.44
2022-11-03T17:35:58.499Z,100131.56
2022-11-03T17:38:26.273Z,100140.19
2022-11-03T17:40:53.125Z,100145.72
2022-11-03T17:43:27.177Z,100144.50
2022-11-03T17:45:56.430Z,100139.91
2022-11-03T17:48:25.854Z,100123.44
2022-11-03T17:50:55.631Z,100117.44
2022-11-03T17:53:26.491Z,100122.53
2022-11-03T17:56:28.045Z,100127.97
2022-11-03T17:58:46.832Z,100106.88
2022-11-03T18:01:25.422Z,100092.00
2022-11-03T18:03:53.193Z,100092.44
2022-11-03T18:06:25.423Z,100082.44
2022-11-03T18:08:54.851Z,100081.38
2022-11-03T18:11:45.190Z,100095.16
2022-11-03T18:14:14.780Z,100076.16
2022-11-03T18:16:44.304Z,100081.66
2022-11-03T18:19:16.136Z,100070.72
2022-11-03T18:21:45.706Z,100080.53
2022-11-03T18:24:18.851Z,100075.69
2022-11-03T18:26:46.012Z,100071.31
2022-11-03T18:29:12.901Z,100065.94
2022-11-03T18:31:49.696Z,100053.69
2022-11-03T18:34:22.874Z,100044.94
2022-11-03T18:36:50.125Z,100040.47
2022-11-03T18:39:26.937Z,100026.53
2022-11-03T18:41:56.776Z,100016.56
2022-11-03T18:44:24.855Z,100013.50
2022-11-03T18:46:52.758Z,100024.97
2022-11-03T18:49:22.084Z,100027.97
2022-11-03T18:52:02.861Z,99999.06
2022-11-03T18:54:34.991Z,99999.50
2022-11-03T18:57:02.720Z,99997.53
2022-11-03T18:59:37.083Z,99998.88
2022-11-03T19:02:22.128Z,99984.44
2022-11-03T19:04:52.097Z,99975.69
2022-11-03T19:07:29.159Z,99979.41
2022-11-03T19:09:56.523Z,99969.03
2022-11-03T19:12:26.223Z,99976.38
2022-11-03T19:14:53.154Z,99967.88
2022-11-03T19:17:23.537Z,99960.69
2022-11-03T19:19:53.053Z,99944.06
2022-11-03T19:22:23.185Z,99948.66
2022-11-03T19:24:50.107Z,99945.19
2022-11-03T19:27:25.522Z,99943.72
2022-11-03T19:29:58.622Z,99942.63
2022-11-03T19:32:32.342Z,99936.78
2022-11-03T19:35:07.257Z,99926.91
2022-11-03T19:37:36.005Z,99935.63
2022-11-03T19:40:08.655Z,99938.78
2022-11-03T19:42:38.179Z,99943.50
2022-11-03T19:45:12.666Z,99936.31
2022-11-03T19:50:38.411Z,99933.31
2022-11-03T19:53:07.426Z,99925.19
2022-11-03T19:55:42.214Z,99912.06
2022-11-03T19:58:20.413Z,99924.19
2022-11-03T20:00:48.121Z,99904.88
2022-11-03T20:03:17.702Z,99912.94
2022-11-03T20:05:49.362Z,99903.91
2022-11-03T20:08:23.720Z,99909.22
2022-11-03T20:10:50.656Z,99893.81
2022-11-03T20:13:21.562Z,99895.41
2022-11-03T20:15:48.422Z,99905.78
2022-11-03T20:18:18.334Z,99896.09
2022-11-03T20:20:48.226Z,99886.97
2022-11-03T20:23:26.190Z,99873.03
2022-11-03T20:25:53.916Z,99869.53
2022-11-03T20:28:28.499Z,99878.66
2022-11-03T20:30:57.057Z,99873.28
2022-11-03T20:33:25.395Z,99879.34
2022-11-03T20:35:56.687Z,99870.91
2022-11-03T20:38:27.690Z,99865.09
2022-11-03T20:40:59.826Z,99867.03
2022-11-03T20:43:43.502Z,99867.50
2022-11-03T20:46:26.427Z,99865.53
2022-11-03T20:48:58.965Z,99852.56
2022-11-03T20:51:30.988Z,99858.19
2022-11-03T20:53:59.357Z,99843.56
2022-11-03T20:56:29.700Z,99848.44
2022-11-03T20:58:58.111Z,99851.28
2022-11-03T21:01:35.491Z,99852.19
2022-11-03T21:04:03.835Z,99850.59
2022-11-03T21:06:36.360Z,99842.09
2022-11-03T21:09:09.567Z,99835.81
2022-11-03T21:11:40.584Z,99832.75
2022-11-03T21:14:26.065Z,99833.19
2022-11-03T21:17:11.713Z,99845.03
2022-11-03T21:20:01.893Z,99856.53
2022-11-03T21:22:52.270Z,99846.97
2022-11-03T21:25:22.497Z,99823.19
2022-11-03T21:27:53.511Z,99807.63
2022-11-03T21:30:22.975Z,99813.09
2022-11-03T21:32:52.314Z,99800.16
2022-11-03T21:35:21.506Z,99810.97
2022-11-03T21:37:48.600Z,99820.81
2022-11-03T21:40:15.575Z,99821.66
2022-11-03T21:43:00.738Z,99830.84
2022-11-03T21:45:27.699Z,99842.38
2022-11-03T21:48:14.403Z,99828.28
2022-11-03T21:50:42.625Z,99825.41
2022-11-03T21:53:10.447Z,99819.50
2022-11-03T21:55:40.077Z,99807.25
2022-11-03T21:58:06.893Z,99806.41
2022-11-03T22:00:36.529Z,99816.72
2022-11-03T22:03:03.407Z,99818.34
2022-11-03T22:05:33.312Z,99804.09
2022-11-03T22:08:00.115Z,99810.72
2022-11-03T22:10:29.246Z,99807.91
2022-11-03T22:12:56.049Z,99803.69
2022-11-03T22:15:41.128Z,99817.41
2022-11-03T22:18:08.376Z,99816.47
2022-11-03T22:20:58.813Z,99801.22
2022-11-03T22:23:44.211Z,99805.53
2022-11-03T22:26:37.456Z,99795.88
2022-11-03T22:29:25.291Z,99806.66
2022-11-03T22:31:56.907Z,99807.69
2022-11-03T22:34:43.251Z,99821.59
2022-11-03T22:37:12.549Z,99821.44
2022-11-03T22:40:04.082Z,99816.91
2022-11-03T22:42:49.549Z,99811.34
2022-11-03T22:45:38.685Z,99805.22
2022-11-03T22:48:06.622Z,99811.78
2022-11-03T22:50:33.684Z,99810.47
2022-11-03T22:53:21.868Z,99812.88
2022-11-03T22:55:48.702Z,99802.38
2022-11-03T22:58:18.417Z,99808.63
2022-11-03T23:00:47.759Z,99803.34
2022-11-03T23:03:14.807Z,99806.91
2022-11-03T23:05:42.839Z,99805.13
2022-11-03T23:08:11.904Z,99795.63
2022-11-03T23:10:38.908Z,99791.91
2022-11-03T23:13:06.357Z,99794.03
2022-11-03T23:15:33.404Z,99789.72
2022-11-03T23:18:23.308Z,99784.50
2022-11-03T23:21:08.211Z,99784.63
2022-11-03T23:24:05.008Z,99782.72
2022-11-03T23:26:34.893Z,99769.75
2022-11-03T23:29:06.039Z,99770.63
2022-11-03T23:31:35.118Z,99765.31
2022-11-03T23:34:02.402Z,99768.41
2022-11-03T23:36:31.059Z,99764.13
2022-11-03T23:38:59.504Z,99744.59
2022-11-03T23:41:27.737Z,99741.59
2022-11-03T23:43:57.434Z,99730.03
2022-11-03T23:46:46.114Z,99730.00
2022-11-03T23:49:13.857Z,99732.09
2022-11-03T23:51:41.954Z,99733.09
2022-11-03T23:54:13.659Z,99724.50
2022-11-03T23:57:04.771Z,99714.94
2022-11-03T23:59:34.035Z,99712.53
